Time;durP1;ratioP1;P1;durP2;ratioP2;P2;SDS_P1;SDS_P2;PMS_P1;PMS_P2;Temp;Humidity;BMP_temperature;BMP_pressure;BME280_temperature;BME280_humidity;BME280_pressure;Samples;Min_cycle;Max_cycle;Signal;HPM_P1;HPM_P2
2022/03/30 00:02:09;354893.00;1.18;612.27;0.00;0.00;0.62;;;;;16.80;1.00;;;;;;2264686;61;983;-86
2022/03/30 00:04:38;489686.00;1.63;844.07;112229.00;0.37;194.68;;;;;17.00;1.00;;;;;;2264511;61;1014;-86
2022/03/30 00:07:08;401518.00;1.34;692.41;0.00;0.00;0.62;;;;;17.20;1.00;;;;;;2264533;61;1574;-87
2022/03/30 00:09:36;695620.00;2.32;1199.64;127018.00;0.42;220.19;;;;;17.00;1.00;;;;;;2264592;61;1071;-87
2022/03/30 00:12:03;707515.00;2.36;1220.27;24231.00;0.08;42.60;;;;;17.00;1.00;;;;;;2264484;61;1996;-87
2022/03/30 00:14:30;989031.00;3.30;1713.05;161142.00;0.54;279.01;;;;;17.00;1.00;;;;;;2264446;61;1444;-85
2022/03/30 00:16:57;542446.00;1.81;934.94;19475.00;0.06;34.36;;;;;17.00;1.00;;;;;;2264503;61;1752;-88
2022/03/30 00:19:25;767475.00;2.56;1324.46;115563.00;0.39;200.43;;;;;17.00;1.00;;;;;;2264505;61;1436;-86
2022/03/30 00:21:53;377920.00;1.26;651.85;17788.00;0.06;31.44;;;;;16.90;1.00;;;;;;2264490;61;2051;-86
2022/03/30 00:24:20;356764.00;1.19;615.49;0.00;0.00;0.62;;;;;17.00;1.00;;;;;;2264569;61;1553;-89
2022/03/30 00:26:47;350591.00;1.17;604.88;39353.00;0.13;68.77;;;;;17.20;1.00;;;;;;2264409;61;1436;-87
2022/03/30 00:29:17;723754.00;2.41;1248.46;58985.00;0.20;102.72;;;;;17.40;1.00;;;;;;2293461;56;3768;-86
2022/03/30 00:31:45;500501.00;1.67;862.69;0.00;0.00;0.62;;;;;17.30;1.00;;;;;;2268518;61;2005;-85
2022/03/30 00:34:15;895767.00;2.99;1548.69;24180.00;0.08;42.51;;;;;17.20;1.00;;;;;;2268547;61;1000;-87
2022/03/30 00:36:44;290830.00;0.97;502.16;0.00;0.00;0.62;;;;;17.20;1.00;;;;;;2268379;61;1419;-86
2022/03/30 00:39:11;634480.00;2.11;1093.79;43363.00;0.14;75.71;;;;;17.00;1.00;;;;;;2268466;61;1538;-86
2022/03/30 00:41:38;854987.00;2.85;1477.20;89363.00;0.30;155.21;;;;;17.00;1.00;;;;;;2268425;61;1497;-86
2022/03/30 00:44:10;347070.00;1.16;598.83;0.00;0.00;0.62;;;;;16.80;1.00;;;;;;2268556;61;1001;-87
2022/03/30 00:46:37;648704.00;2.16;1118.39;46982.00;0.16;81.97;;;;;16.90;1.00;;;;;;2268435;61;1401;-86
2022/03/30 00:49:05;624702.00;2.08;1076.89;64615.00;0.22;112.45;;;;;17.00;1.00;;;;;;2268419;61;1020;-88
2022/03/30 00:51:36;215178.00;0.72;372.05;7547.00;0.03;13.70;;;;;17.10;1.00;;;;;;2268293;61;1920;-86
2022/03/30 00:54:08;638506.00;2.13;1100.76;50586.00;0.17;88.20;;;;;16.90;1.00;;;;;;2268455;61;1465;-86
2022/03/30 00:56:38;673751.00;2.25;1161.75;23018.00;0.08;40.50;;;;;16.70;1.00;;;;;;2268448;61;1305;-86
2022/03/30 00:59:11;621280.00;2.07;1070.98;90760.00;0.30;157.62;;;;;16.90;1.00;;;;;;2268471;61;979;-87
2022/03/30 01:01:41;440687.00;1.47;759.76;42666.00;0.14;74.50;;;;;16.60;1.00;;;;;;2268390;61;1597;-85
2022/03/30 01:04:08;592652.00;1.98;1021.53;1554.00;0.01;3.31;;;;;16.60;1.00;;;;;;2268393;61;1057;-88
2022/03/30 01:06:35;1295587.00;4.32;2264.03;43192.00;0.14;75.41;;;;;16.60;1.00;;;;;;2268323;61;1407;-87
2022/03/30 01:09:04;1370172.00;4.57;2401.12;48701.00;0.16;84.94;;;;;16.50;1.00;;;;;;2268399;61;1037;-86
2022/03/30 01:11:33;1438486.00;4.79;2527.90;105433.00;0.35;182.95;;;;;16.50;1.00;;;;;;2268321;61;1908;-87
2022/03/30 01:14:00;1411980.00;4.71;2478.56;107829.00;0.36;187.08;;;;;16.30;1.00;;;;;;2268389;61;1121;-86
2022/03/30 01:16:30;1711539.00;5.71;3047.87;106216.00;0.35;184.30;;;;;16.30;1.00;;;;;;2268264;61;1322;-88
2022/03/30 01:19:08;1260619.00;4.20;2200.21;145932.00;0.49;252.80;;;;;16.30;1.00;;;;;;2268327;61;1725;-88
2022/03/30 01:21:39;1738827.00;5.80;3101.12;94880.00;0.32;164.73;;;;;16.40;1.00;;;;;;2268276;61;1212;-86
2022/03/30 01:24:09;1414079.00;4.71;2482.46;175011.00;0.58;302.90;;;;;16.40;1.00;;;;;;2268346;61;1240;-87
2022/03/30 01:26:36;1643407.00;5.48;2915.99;167916.00;0.56;290.68;;;;;16.50;1.00;;;;;;2268305;61;2176;-85
2022/03/30 01:32:25;1637955.00;5.46;2905.50;233412.00;0.78;403.42;;;;;16.60;1.00;;;;;;2268201;61;1014;-86
2022/03/30 01:34:44;1273426.00;4.24;2223.55;132921.00;0.44;230.37;;;;;16.60;1.00;;;;;;2268364;61;1402;-88
2022/03/30 01:37:13;1367337.00;4.56;2395.88;58712.00;0.20;102.25;;;;;16.60;1.00;;;;;;2268310;61;1379;-87
2022/03/30 01:39:41;1177603.00;3.93;2049.78;119091.00;0.40;206.51;;;;;16.60;1.00;;;;;;2268341;61;949;-87
2022/03/30 01:42:09;1598149.00;5.33;2829.20;90224.00;0.30;156.69;;;;;16.50;1.00;;;;;;2268248;61;1488;-86
2022/03/30 01:44:38;1574694.00;5.25;2784.47;187145.00;0.62;323.79;;;;;16.50;1.00;;;;;;2268283;61;1110;-87
2022/03/30 01:47:06;1535610.00;5.12;2710.31;197150.00;0.66;341.02;;;;;16.40;1.00;;;;;;2268273;61;1387;-86
2022/03/30 01:49:33;824073.00;2.75;1423.14;127806.00;0.43;221.55;;;;;16.40;1.00;;;;;;2268281;61;1545;-88
2022/03/30 01:52:00;117524792.00;391.75;65753404.00;99760.00;0.33;173.16;;;;;16.30;1.00;;;;;;2268157;61;1916;-87
2022/03/30 01:54:29;770977.00;2.57;1330.55;105391.00;0.35;182.88;;;;;16.20;1.00;;;;;;2268345;61;1024;-86
2022/03/30 01:56:57;75269.00;0.25;130.86;0.00;0.00;0.62;;;;;16.30;1.00;;;;;;2268111;61;1551;-86
2022/03/30 01:59:24;222487.00;0.74;384.62;0.00;0.00;0.62;;;;;16.40;1.00;;;;;;2268086;61;1072;-86
2022/03/30 02:01:52;553306.00;1.84;953.66;30929.00;0.10;54.19;;;;;16.60;1.00;;;;;;2268217;61;1003;-86
2022/03/30 02:04:19;447469.00;1.49;771.43;75993.00;0.25;132.12;;;;;16.70;1.00;;;;;;2268276;61;1094;-86
2022/03/30 02:06:46;291687.00;0.97;503.63;0.00;0.00;0.62;;;;;16.70;1.00;;;;;;2268083;61;1382;-86
2022/03/30 02:09:14;508208.00;1.69;875.96;0.00;0.00;0.62;;;;;16.80;1.00;;;;;;2268240;61;913;-86
2022/03/30 02:11:43;259366.00;0.86;448.06;0.00;0.00;0.62;;;;;16.60;1.00;;;;;;2268150;61;1988;-87
2022/03/30 02:14:11;276161.00;0.92;476.94;0.00;0.00;0.62;;;;;16.60;1.00;;;;;;2268232;61;1019;-86
2022/03/30 02:16:38;600374.00;2.00;1034.87;7475.00;0.02;13.57;;;;;16.40;1.00;;;;;;2268094;61;1558;-85
2022/03/30 02:19:05;170107.00;0.57;294.45;0.00;0.00;0.62;;;;;16.30;1.00;;;;;;2268202;61;1686;-87
2022/03/30 02:24:08;577600.00;1.93;995.56;34044.00;0.11;59.58;;;;;16.10;1.00;;;;;;755787;60;1783;-87
2022/03/30 02:26:35;343806.00;1.15;593.22;21607.00;0.07;38.05;;;;;16.30;1.00;;;;;;2260607;61;2312;-86
2022/03/30 02:29:03;459977.00;1.53;792.95;0.00;0.00;0.62;;;;;16.30;1.00;;;;;;2260663;61;1449;-85
2022/03/30 02:31:31;590383.00;1.97;1017.62;15734.00;0.05;27.88;;;;;16.40;1.00;;;;;;2260061;61;1924;-86
2022/03/30 02:33:58;82782.00;0.28;143.84;0.00;0.00;0.62;;;;;16.50;1.00;;;;;;2260137;61;925;-86
2022/03/30 02:36:25;620833.00;2.07;1070.21;26804.00;0.09;47.05;;;;;16.60;1.00;;;;;;2260128;61;1273;-85
2022/03/30 02:38:53;302811.00;1.01;522.75;0.00;0.00;0.62;;;;;16.70;1.00;;;;;;2260097;61;2024;-86
2022/03/30 02:41:20;376358.00;1.25;649.17;23239.00;0.08;40.88;;;;;16.70;1.00;;;;;;2260152;61;1031;-85
2022/03/30 02:43:47;228882.00;0.76;395.63;34132.00;0.11;59.73;;;;;16.20;1.00;;;;;;2260148;61;1129;-86
2022/03/30 02:46:15;594236.00;1.98;1024.27;81857.00;0.27;142.24;;;;;16.10;1.00;;;;;;2260009;61;1313;-89
2022/03/30 02:48:43;377803.00;1.26;651.65;0.00;0.00;0.62;;;;;16.10;1.00;;;;;;2260102;61;1341;-87
2022/03/30 02:51:10;192350.00;0.64;332.75;0.00;0.00;0.62;;;;;16.20;1.00;;;;;;2260132;61;932;-87
2022/03/30 02:53:38;534846.00;1.78;921.84;97480.00;0.32;169.22;;;;;16.30;1.00;;;;;;2260032;61;1935;-87
2022/03/30 02:56:05;881834.00;2.94;1524.24;81233.00;0.27;141.17;;;;;16.50;1.00;;;;;;2260006;61;1381;-86
2022/03/30 02:58:33;1270228.00;4.23;2217.72;85967.00;0.29;149.34;;;;;16.40;1.00;;;;;;2260139;61;1029;-87
2022/03/30 03:01:00;914259.00;3.05;1581.18;28657.00;0.10;50.26;;;;;16.10;1.00;;;;;;2260025;61;1009;-87
2022/03/30 03:03:29;1211604.00;4.04;2111.21;97672.00;0.33;169.55;;;;;16.10;1.00;;;;;;2260091;61;1561;-87
2022/03/30 03:05:56;1141232.00;3.80;1984.32;44507.00;0.15;77.69;;;;;16.10;1.00;;;;;;2260081;61;1397;-87
2022/03/30 03:08:23;1096219.00;3.65;1903.66;81181.00;0.27;141.08;;;;;16.20;1.00;;;;;;2260017;61;928;-86
2022/03/30 03:10:51;1409613.00;4.70;2474.16;161212.00;0.54;279.13;;;;;16.00;1.00;;;;;;2260093;61;1057;-87
2022/03/30 03:13:18;1903721.00;6.35;3428.47;209164.00;0.70;361.70;;;;;15.80;1.00;;;;;;2260578;61;1916;-87
2022/03/30 03:15:47;1311632.00;4.37;2293.41;120029.00;0.40;208.13;;;;;16.00;1.00;;;;;;2260707;61;1496;-87
2022/03/30 03:18:14;1482974.00;4.94;2611.12;167547.00;0.56;290.04;;;;;16.00;1.00;;;;;;2260593;61;1641;-87
2022/03/30 03:20:47;1367440.00;4.56;2396.07;149349.00;0.50;258.69;;;;;16.10;1.00;;;;;;2260777;61;1032;-86
2022/03/30 03:23:15;125244240.00;417.48;79593888.00;161682.00;0.54;279.94;;;;;16.30;1.00;;;;;;2260714;61;1492;-88
2022/03/30 03:25:43;1647600.00;5.49;2924.06;165334.00;0.55;286.23;;;;;16.10;1.00;;;;;;2260655;61;1051;-86
2022/03/30 03:28:11;1365739.00;4.55;2392.93;138426.00;0.46;239.86;;;;;15.80;1.00;;;;;;2260676;61;1382;-87
2022/03/30 03:30:39;991104.00;3.30;1716.72;157639.00;0.53;272.97;;;;;15.40;1.00;;;;;;2260668;61;1090;-87
2022/03/30 03:33:07;1074730.00;3.58;1865.29;80850.00;0.27;140.51;;;;;15.20;1.00;;;;;;2260606;61;1995;-87
2022/03/30 03:35:35;603125.00;2.01;1039.62;98262.00;0.33;170.57;;;;;15.10;1.00;;;;;;2260672;61;992;-87
2022/03/30 03:38:05;118470488.00;394.90;67354984.00;90547.00;0.30;157.25;;;;;15.30;1.00;;;;;;2260576;61;1385;-87
2022/03/30 03:40:32;886320.00;2.95;1532.11;88069.00;0.29;152.97;;;;;15.50;1.00;;;;;;2260764;61;983;-87
2022/03/30 03:43:00;781358.00;2.60;1348.63;142010.00;0.47;246.04;;;;;15.80;1.00;;;;;;2260679;61;1088;-87
2022/03/30 03:45:27;542439.00;1.81;934.93;120078.00;0.40;208.22;;;;;15.90;1.00;;;;;;2260607;61;1591;-86
2022/03/30 03:47:54;357995.00;1.19;617.60;90249.00;0.30;156.74;;;;;16.20;1.00;;;;;;2260631;61;1646;-85
2022/03/30 03:50:22;421940.00;1.41;727.53;0.00;0.00;0.62;;;;;16.30;1.00;;;;;;2260567;61;1563;-86
2022/03/30 03:52:49;296761.00;0.99;512.35;0.00;0.00;0.62;;;;;16.30;1.00;;;;;;2260627;61;2009;-86
2022/03/30 03:55:18;572321.00;1.91;986.45;58887.00;0.20;102.55;;;;;16.10;1.00;;;;;;2260698;61;1478;-86
2022/03/30 03:57:45;922412.00;3.07;1595.52;146368.00;0.49;253.55;;;;;15.90;1.00;;;;;;2260584;61;1288;-86
2022/03/30 04:00:13;397903.00;1.33;686.20;0.00;0.00;0.62;;;;;15.90;1.00;;;;;;2260250;61;1126;-86
2022/03/30 04:02:40;292138.00;0.97;504.40;0.00;0.00;0.62;;;;;15.70;1.00;;;;;;2260475;61;1057;-86
2022/03/30 04:05:09;410888.00;1.37;708.52;31844.00;0.11;55.77;;;;;15.60;1.00;;;;;;2260473;61;1124;-86
2022/03/30 04:07:37;952213.00;3.17;1648.01;6680.00;0.02;12.20;;;;;15.40;1.00;;;;;;2260494;61;1305;-86
2022/03/30 04:10:05;598594.00;2.00;1031.79;45024.00;0.15;78.58;;;;;15.10;1.00;;;;;;2260532;61;1091;-86
2022/03/30 04:12:34;207955.00;0.69;359.62;34376.00;0.11;60.16;;;;;15.20;1.00;;;;;;2260483;61;1986;-86
2022/03/30 04:15:01;272145.00;0.91;470.03;31105.00;0.10;54.50;;;;;15.10;1.00;;;;;;2260537;61;926;-87
2022/03/30 04:17:28;168169.00;0.56;291.11;0.00;0.00;0.62;;;;;15.20;1.00;;;;;;2260505;61;1317;-87
2022/03/30 04:19:55;349624.00;1.17;603.21;0.00;0.00;0.62;;;;;15.30;1.00;;;;;;2260510;61;1729;-86
2022/03/30 04:22:22;142265.00;0.47;246.48;0.00;0.00;0.62;;;;;15.60;1.00;;;;;;2260389;61;1127;-86
2022/03/30 04:24:49;254050.00;0.85;438.92;0.00;0.00;0.62;;;;;15.60;1.00;;;;;;2260369;61;1047;-87
2022/03/30 04:27:16;267079.00;0.89;461.32;0.00;0.00;0.62;;;;;15.40;1.00;;;;;;2260466;61;1396;-87
2022/03/30 04:29:44;349173.00;1.16;602.44;0.00;0.00;0.62;;;;;15.40;1.00;;;;;;2260474;61;1108;-86
2022/03/30 04:32:11;463047.00;1.54;798.23;52110.00;0.17;90.84;;;;;15.30;1.00;;;;;;2260413;61;2002;-85
2022/03/30 04:34:38;292357.00;0.97;504.78;79805.00;0.27;138.70;;;;;15.60;1.00;;;;;;2260376;61;1049;-86
2022/03/30 04:37:05;117513104.00;391.71;65733776.00;117020016.00;390.07;64909052.00;;;;;15.60;1.00;;;;;;2260358;61;1554;-86
2022/03/30 04:39:33;300352.00;1.00;518.53;0.00;0.00;0.62;;;;;15.40;1.00;;;;;;2260445;61;1130;-86
2022/03/30 04:42:00;352196.00;1.17;607.64;13739.00;0.05;24.43;;;;;15.30;1.00;;;;;;2260477;61;1126;-87
2022/03/30 04:44:27;353995.00;1.18;610.73;0.00;0.00;0.62;;;;;15.40;1.00;;;;;;2260359;61;1107;-86
2022/03/30 04:46:56;117353416.00;391.18;65465924.00;0.00;0.00;0.62;;;;;15.60;1.00;;;;;;2260353;61;1432;-86
2022/03/30 04:49:23;219715.00;0.73;379.85;0.00;0.00;0.62;;;;;15.70;1.00;;;;;;2260301;61;1709;-87
2022/03/30 04:51:50;528491.00;1.76;910.89;23976.00;0.08;42.15;;;;;15.80;1.00;;;;;;2260300;61;1598;-86
2022/03/30 04:54:18;1142520.00;3.81;1986.63;142703.00;0.48;247.23;;;;;15.60;1.00;;;;;;2260365;61;1924;-87
2022/03/30 04:56:47;1586260.00;5.29;2806.51;118411.00;0.39;205.34;;;;;15.80;1.00;;;;;;2260235;61;1589;-87
2022/03/30 04:59:15;1906254.00;6.35;3433.58;101925.00;0.34;176.89;;;;;16.00;1.00;;;;;;2260398;61;1118;-87
2022/03/30 05:01:42;1205329.00;4.02;2099.86;85302.00;0.28;148.19;;;;;16.10;1.00;;;;;;2260291;61;1621;-86
2022/03/30 05:04:10;1479040.00;4.93;2603.74;180454.00;0.60;312.27;;;;;16.10;1.00;;;;;;2260435;61;1117;-86
2022/03/30 05:06:37;1307911.00;4.36;2286.59;85481.00;0.28;148.50;;;;;16.20;1.00;;;;;;2260398;61;1282;-86
2022/03/30 05:09:04;1577849.00;5.26;2790.48;155849.00;0.52;269.89;;;;;16.30;1.00;;;;;;2260299;61;1126;-86
2022/03/30 05:11:31;1230848.00;4.10;2146.09;146633.00;0.49;254.00;;;;;16.10;1.00;;;;;;2260411;61;2141;-86
2022/03/30 05:13:58;1422439.00;4.74;2498.01;142370.00;0.47;246.66;;;;;16.00;1.00;;;;;;2260226;61;1998;-86
2022/03/30 05:16:27;1729359.00;5.76;3082.61;259900.00;0.87;448.98;;;;;16.10;1.00;;;;;;2260146;61;1661;-86
2022/03/30 05:18:54;730242.00;2.43;1259.72;120733.00;0.40;209.35;;;;;16.00;1.00;;;;;;2260252;61;1695;-87
2022/03/30 05:21:22;774028.00;2.58;1335.87;142612.00;0.48;247.07;;;;;16.00;1.00;;;;;;2260406;61;938;-87
2022/03/30 05:23:50;580885.00;1.94;1001.23;126829.00;0.42;219.86;;;;;15.90;1.00;;;;;;2260255;61;1618;-87
2022/03/30 05:26:16;751865.00;2.51;1297.30;144899.00;0.48;251.02;;;;;15.90;1.00;;;;;;2260287;61;1471;-87
2022/03/30 05:28:43;641295.00;2.14;1105.58;94866.00;0.32;164.71;;;;;15.80;1.00;;;;;;2260236;61;1094;-87
2022/03/30 05:31:11;804166.00;2.68;1388.39;100655.00;0.34;174.70;;;;;16.00;1.00;;;;;;2260316;61;1443;-85
2022/03/30 05:33:38;884578.00;2.95;1529.05;113786.00;0.38;197.36;;;;;15.90;1.00;;;;;;2260094;61;1927;-86
2022/03/30 05:36:07;248301.00;0.83;429.03;86750.00;0.29;150.70;;;;;16.40;1.00;;;;;;2260203;61;1359;-87
2022/03/30 05:38:36;297882.00;0.99;514.28;32347.00;0.11;56.65;;;;;16.40;1.00;;;;;;2260294;61;1051;-87
2022/03/30 05:41:03;658538.00;2.20;1135.41;36598.00;0.12;64.00;;;;;16.60;1.00;;;;;;2260344;61;2044;-88
2022/03/30 05:43:30;339001.00;1.13;584.96;0.00;0.00;0.62;;;;;16.90;1.00;;;;;;2260261;61;1005;-85
2022/03/30 05:45:57;287712.00;0.96;496.80;0.00;0.00;0.62;;;;;16.80;1.00;;;;;;2260231;61;1256;-87
2022/03/30 05:48:26;991349.00;3.30;1717.16;168798.00;0.56;292.20;;;;;16.70;1.00;;;;;;2260234;61;1068;-86
2022/03/30 05:50:55;590339.00;1.97;1017.54;28078.00;0.09;49.26;;;;;16.50;1.00;;;;;;2260275;61;1145;-88
2022/03/30 05:53:22;754477.00;2.51;1301.84;111243.00;0.37;192.97;;;;;16.40;1.00;;;;;;2260118;61;2009;-87
2022/03/30 05:55:50;612408.00;2.04;1055.65;83931.00;0.28;145.83;;;;;16.40;1.00;;;;;;2260245;61;1275;-86
2022/03/30 05:58:18;618589.00;2.06;1066.33;33341.00;0.11;58.37;;;;;16.10;1.00;;;;;;2260212;61;1095;-87
2022/03/30 06:00:46;824890.00;2.75;1424.57;168184.00;0.56;291.14;;;;;16.10;1.00;;;;;;2260193;61;1755;-87
2022/03/30 06:03:13;395388.00;1.32;681.88;0.00;0.00;0.62;;;;;16.20;1.00;;;;;;2260112;61;970;-86
2022/03/30 06:05:40;254180.00;0.85;439.14;0.00;0.00;0.62;;;;;16.10;1.00;;;;;;2260241;61;1012;-86
2022/03/30 06:08:09;390820.00;1.30;674.02;20244.00;0.07;35.69;;;;;15.90;1.00;;;;;;2260272;61;1337;-87
2022/03/30 06:10:36;257939.00;0.86;445.60;0.00;0.00;0.62;;;;;15.90;1.00;;;;;;2260193;61;960;-87
2022/03/30 06:13:05;417251.00;1.39;719.46;34543.00;0.12;60.45;;;;;16.00;1.00;;;;;;2260082;61;1931;-88
2022/03/30 06:15:34;566777.00;1.89;976.89;43512.00;0.15;75.96;;;;;15.90;1.00;;;;;;2260190;61;1147;-87
2022/03/30 06:18:03;266007.00;0.89;459.48;0.00;0.00;0.62;;;;;15.70;1.00;;;;;;2260067;61;1331;-88
2022/03/30 06:20:30;550643.00;1.84;949.07;6085.00;0.02;11.17;;;;;15.80;1.00;;;;;;2260236;61;1055;-87
2022/03/30 06:22:57;576855.00;1.92;994.27;7858.00;0.03;14.24;;;;;15.80;1.00;;;;;;2260106;61;1597;-87
2022/03/30 06:25:25;198839.00;0.66;343.93;0.00;0.00;0.62;;;;;15.70;1.00;;;;;;2260157;61;1497;-88
2022/03/30 06:27:53;413104.00;1.38;712.33;0.00;0.00;0.62;;;;;15.70;1.00;;;;;;2260036;61;1456;-85
2022/03/30 06:30:23;1491530.00;4.97;2627.19;44902.00;0.15;78.37;;;;;15.60;1.00;;;;;;2260167;61;907;-88
2022/03/30 06:32:51;1013061.00;3.38;1755.62;92575.00;0.31;160.75;;;;;15.50;1.00;;;;;;2259981;61;1922;-89
2022/03/30 06:35:19;394420.00;1.31;680.21;0.00;0.00;0.62;;;;;15.60;1.00;;;;;;2260107;61;1544;-86
2022/03/30 06:37:46;552648.00;1.84;952.52;14176.00;0.05;25.18;;;;;15.50;1.00;;;;;;2260115;61;1287;-87
2022/03/30 06:40:15;1978575.00;6.60;3580.42;189201.00;0.63;327.33;;;;;15.40;1.00;;;;;;2260089;61;1071;-87
2022/03/30 06:42:44;119626928.00;398.76;69348560.00;66152.00;0.22;115.11;;;;;15.40;1.00;;;;;;2259983;61;1153;-88
2022/03/30 06:45:12;1318706.00;4.40;2306.38;167398.00;0.56;289.78;;;;;15.40;1.00;;;;;;2260032;61;1095;-88
2022/03/30 06:47:41;1263515.00;4.21;2205.49;162022.00;0.54;280.52;;;;;15.30;1.00;;;;;;2259980;61;1405;-87
2022/03/30 06:50:09;717337.00;2.39;1237.32;0.00;0.00;0.62;;;;;15.40;1.00;;;;;;2259989;61;1678;-87
2022/03/30 06:52:36;1111606.00;3.71;1931.19;121916.00;0.41;211.39;;;;;15.60;1.00;;;;;;2260168;61;1051;-88
2022/03/30 06:55:06;1503228.00;5.01;2649.20;98829.00;0.33;171.55;;;;;15.30;1.00;;;;;;2259888;61;1926;-88
2022/03/30 06:57:33;1636497.00;5.45;2902.69;74886.00;0.25;130.20;;;;;15.30;1.00;;;;;;2259901;61;1521;-88
2022/03/30 07:00:00;1372312.00;4.57;2405.07;199816.00;0.67;345.61;;;;;14.80;1.00;;;;;;2259922;61;978;-87
2022/03/30 07:02:27;838476.00;2.79;1448.31;18226.00;0.06;32.20;;;;;14.90;1.00;;;;;;2259946;61;1483;-88
2022/03/30 07:10:16;1785448.00;5.95;3192.68;213712.00;0.71;369.52;;;;;15.10;1.00;;;;;;2264727;61;375;-87
2022/03/30 07:12:44;638864.00;2.13;1101.37;48117.00;0.16;83.93;;;;;15.20;1.00;;;;;;2264710;61;813;-87
2022/03/30 07:15:11;798793.00;2.66;1379.02;103835.00;0.35;180.19;;;;;15.30;1.00;;;;;;2264686;61;2005;-88
2022/03/30 07:17:46;518108.00;1.73;893.01;0.00;0.00;0.62;;;;;15.70;1.00;;;;;;2264529;61;1495;-86
2022/03/30 07:20:14;1591137.00;5.30;2815.81;111262.00;0.37;193.01;;;;;15.80;1.00;;;;;;2263793;61;1152;-88
2022/03/30 07:22:44;1104452.00;3.68;1918.39;172821.00;0.58;299.13;;;;;15.90;1.00;;;;;;2263980;61;979;-87
2022/03/30 07:25:13;767690.00;2.56;1324.83;40439.00;0.13;70.65;;;;;16.10;1.00;;;;;;2273613;40;3606;-88
2022/03/30 07:27:41;1228356.00;4.09;2141.57;165397.00;0.55;286.34;;;;;16.20;1.00;;;;;;2260360;61;1391;-88
2022/03/30 07:30:11;1314312.00;4.38;2298.32;155631.00;0.52;269.51;;;;;16.10;1.00;;;;;;2293356;56;3779;-88
2022/03/30 07:32:39;1299761.00;4.33;2271.67;233765.00;0.78;404.03;;;;;16.40;1.00;;;;;;2274534;40;3775;-86
2022/03/30 07:35:08;1542798.00;5.14;2723.91;192345.00;0.64;332.75;;;;;16.30;1.00;;;;;;2263705;61;1922;-87
2022/03/30 07:37:35;120605064.00;402.02;71065192.00;168261.00;0.56;291.27;;;;;16.20;1.00;;;;;;2260638;61;1332;-87
2022/03/30 07:40:05;552982.00;1.84;953.10;43343.00;0.14;75.67;;;;;16.30;1.00;;;;;;2259908;61;1150;-87
2022/03/30 07:42:32;680753.00;2.27;1173.88;63342.00;0.21;110.25;;;;;16.60;1.00;;;;;;2259999;61;1114;-87
2022/03/30 07:45:00;777501.00;2.59;1341.91;0.00;0.00;0.62;;;;;16.60;1.00;;;;;;2259785;61;1044;-87
2022/03/30 07:47:27;385713.00;1.29;665.25;0.00;0.00;0.62;;;;;16.50;1.00;;;;;;2259900;61;1670;-87
2022/03/30 07:49:54;864253.00;2.88;1493.42;76699.00;0.26;133.33;;;;;16.20;1.00;;;;;;2259776;61;999;-87
2022/03/30 07:52:21;117642432.00;392.14;65951236.00;0.00;0.00;0.62;;;;;16.40;1.00;;;;;;2259927;61;1585;-87
2022/03/30 07:54:49;556674.00;1.86;959.47;20199.00;0.07;35.61;;;;;16.40;1.00;;;;;;2259771;61;2009;-87
2022/03/30 07:57:20;767708.00;2.56;1324.86;25764.00;0.09;45.25;;;;;16.40;1.00;;;;;;2259835;61;1374;-89
2022/03/30 07:59:47;564772.00;1.88;973.43;79265.00;0.26;137.77;;;;;16.20;1.00;;;;;;2260577;61;1728;-88
2022/03/30 08:02:15;177140.00;0.59;306.56;0.00;0.00;0.62;;;;;16.20;1.00;;;;;;2260378;61;1716;-89
2022/03/30 08:04:43;405225.00;1.35;698.79;0.00;0.00;0.62;;;;;16.00;1.00;;;;;;2260557;61;947;-87
2022/03/30 08:07:10;377299.00;1.26;650.78;10029.00;0.03;18.00;;;;;16.00;1.00;;;;;;2260418;61;2265;-88
2022/03/30 08:09:37;433130.00;1.44;746.77;0.00;0.00;0.62;;;;;15.90;1.00;;;;;;2260477;61;1563;-86
2022/03/30 08:12:05;641493.00;2.14;1105.92;53618.00;0.18;93.44;;;;;16.00;1.00;;;;;;2260406;61;881;-87
2022/03/30 08:14:34;344917.00;1.15;595.12;0.00;0.00;0.62;;;;;16.00;1.00;;;;;;2260350;61;1912;-86
2022/03/30 08:19:36;667963.00;2.23;1151.73;64091.00;0.21;111.55;;;;;15.90;1.00;;;;;;2005515;60;2795;-88
2022/03/30 08:24:59;319589.00;1.07;551.59;0.00;0.00;0.62;;;;;15.80;1.00;;;;;;2258000;61;1109;-90
2022/03/30 08:27:29;705307.00;2.35;1216.44;77497.00;0.26;134.71;;;;;15.80;1.00;;;;;;2260221;61;1330;-88
2022/03/30 08:29:59;1206334.00;4.02;2101.68;199062.00;0.66;344.31;;;;;15.90;1.00;;;;;;2260555;61;1061;-88
2022/03/30 08:32:28;506502.00;1.69;873.02;50571.00;0.17;88.17;;;;;15.90;1.00;;;;;;2260450;61;1574;-87
2022/03/30 08:34:56;573041.00;1.91;987.69;0.00;0.00;0.62;;;;;15.80;1.00;;;;;;2260413;61;1918;-88
2022/03/30 08:37:24;477970.00;1.59;823.90;23827.00;0.08;41.90;;;;;15.70;1.00;;;;;;2260414;61;1540;-88
2022/03/30 08:39:53;944285.00;3.15;1634.04;81093.00;0.27;140.93;;;;;15.60;1.00;;;;;;2260525;61;1852;-88
2022/03/30 08:42:20;251773.00;0.84;435.00;16732.00;0.06;29.61;;;;;15.70;1.00;;;;;;2260537;61;1725;-87
2022/03/30 08:44:49;400164.00;1.33;690.09;8238.00;0.03;14.90;;;;;15.80;1.00;;;;;;2260442;61;1800;-88
2022/03/30 08:47:18;722718.00;2.41;1246.66;60730.00;0.20;105.74;;;;;15.80;1.00;;;;;;2260380;61;2068;-87
2022/03/30 08:49:47;113615.00;0.38;197.07;0.00;0.00;0.62;;;;;15.70;1.00;;;;;;2260428;61;1590;-87
2022/03/30 08:52:16;492068.00;1.64;848.17;69290.00;0.23;120.53;;;;;15.70;1.00;;;;;;2260389;61;1112;-86
2022/03/30 08:54:45;795494.00;2.65;1373.27;76555.00;0.26;133.09;;;;;15.80;1.00;;;;;;2260254;61;1930;-88
2022/03/30 08:57:12;482467.00;1.61;831.64;31919.00;0.11;55.90;;;;;15.70;1.00;;;;;;2260493;61;1550;-90
2022/03/30 08:59:39;595455.00;1.98;1026.37;43656.00;0.15;76.21;;;;;15.80;1.00;;;;;;2260433;61;1371;-87
2022/03/30 09:02:09;422993.00;1.41;729.34;13879.00;0.05;24.67;;;;;15.90;1.00;;;;;;2260235;61;1712;-90
2022/03/30 09:04:38;825679.00;2.75;1425.95;142383.00;0.47;246.68;;;;;16.00;1.00;;;;;;2260479;61;1929;-88
2022/03/30 09:07:06;525621.00;1.75;905.95;26950.00;0.09;47.30;;;;;15.90;1.00;;;;;;2260373;61;1348;-87
2022/03/30 09:09:35;938235.00;3.13;1623.37;67616.00;0.23;117.64;;;;;15.90;1.00;;;;;;2260438;61;1109;-88
2022/03/30 09:12:09;379305.00;1.26;654.23;28897.00;0.10;50.67;;;;;16.00;1.00;;;;;;2260390;61;1106;-87
2022/03/30 09:14:39;172131.00;0.57;297.94;0.00;0.00;0.62;;;;;16.00;1.00;;;;;;2260366;61;1984;-89
2022/03/30 09:17:08;211539.00;0.71;365.78;0.00;0.00;0.62;;;;;16.00;1.00;;;;;;2260457;61;1482;-86
2022/03/30 09:19:39;120083024.00;400.28;70145520.00;130742.00;0.44;226.61;;;;;16.00;1.00;;;;;;2260360;61;1054;-86
2022/03/30 09:22:08;1235553.00;4.12;2154.63;178110.00;0.59;308.23;;;;;16.20;1.00;;;;;;2260294;61;1904;-87
2022/03/30 09:24:37;457894.00;1.53;789.36;0.00;0.00;0.62;;;;;16.40;1.00;;;;;;2260355;61;1071;-87
2022/03/30 09:27:07;243837.00;0.81;421.35;0.00;0.00;0.62;;;;;16.20;1.00;;;;;;2260409;61;1403;-86
2022/03/30 09:29:36;509433.00;1.70;878.07;10473.00;0.03;18.77;;;;;16.50;1.00;;;;;;2260479;61;965;-88
2022/03/30 09:32:06;497568.00;1.66;857.64;25466.00;0.08;44.73;;;;;16.70;1.00;;;;;;2260320;61;1109;-87
2022/03/30 09:34:34;362497.00;1.21;625.34;0.00;0.00;0.62;;;;;16.90;1.00;;;;;;2260415;61;1984;-87
2022/03/30 09:37:11;414367.00;1.38;714.51;0.00;0.00;0.62;;;;;17.00;1.00;;;;;;2260345;61;1744;-87
2022/03/30 09:39:40;308990.00;1.03;533.37;28353.00;0.09;49.73;;;;;16.80;1.00;;;;;;2260248;61;1553;-87
2022/03/30 09:42:10;275070.00;0.92;475.06;0.00;0.00;0.62;;;;;16.60;1.00;;;;;;2260407;61;962;-86
2022/03/30 09:44:47;227955.00;0.76;394.03;15290.00;0.05;27.11;;;;;16.60;1.00;;;;;;2260219;61;1100;-87
2022/03/30 09:47:14;1057857.00;3.53;1835.22;167100.00;0.56;289.27;;;;;16.70;1.00;;;;;;2260361;61;1457;-86
2022/03/30 09:49:43;677453.00;2.26;1168.16;48991.00;0.16;85.44;;;;;16.70;1.00;;;;;;2260359;61;1009;-88